sensor_id;sensor_type;location;lat;lon;timestamp;pressure;altitude;pressure_sealevel;temperature;humidity
79174;BME280;68599;49.142;9.124;2024-02-23T00:01:06;97702.98;;;8.73;62.02
79174;BME280;68599;49.142;9.124;2024-02-23T00:03:33;97707.17;;;8.53;62.70
79174;BME280;68599;49.142;9.124;2024-02-23T00:06:03;97711.89;;;8.47;62.87
79174;BME280;68599;49.142;9.124;2024-02-23T00:08:30;97707.69;;;8.40;63.04
79174;BME280;68599;49.142;9.124;2024-02-23T00:10:56;97716.40;;;8.38;63.26
79174;BME280;68599;49.142;9.124;2024-02-23T00:13:23;97723.27;;;8.37;63.23
79174;BME280;68599;49.142;9.124;2024-02-23T00:15:49;97722.55;;;8.45;63.04
79174;BME280;68599;49.142;9.124;2024-02-23T00:18:16;97728.27;;;8.46;62.72
79174;BME280;68599;49.142;9.124;2024-02-23T00:20:43;97731.92;;;8.40;62.96
79174;BME280;68599;49.142;9.124;2024-02-23T00:23:10;97722.52;;;8.42;62.61
79174;BME280;68599;49.142;9.124;2024-02-23T00:25:37;97735.36;;;8.35;62.81
79174;BME280;68599;49.142;9.124;2024-02-23T00:28:04;97731.65;;;8.38;62.52
79174;BME280;68599;49.142;9.124;2024-02-23T00:30:31;97733.52;;;8.31;62.23
79174;BME280;68599;49.142;9.124;2024-02-23T00:32:58;97738.84;;;8.28;62.29
79174;BME280;68599;49.142;9.124;2024-02-23T00:35:24;97737.31;;;8.35;61.76
79174;BME280;68599;49.142;9.124;2024-02-23T00:37:51;97750.98;;;8.24;61.91
79174;BME280;68599;49.142;9.124;2024-02-23T00:40:17;97758.98;;;8.26;61.28
79174;BME280;68599;49.142;9.124;2024-02-23T00:42:44;97761.91;;;8.30;60.63
79174;BME280;68599;49.142;9.124;2024-02-23T00:45:10;97766.58;;;8.25;60.98
79174;BME280;68599;49.142;9.124;2024-02-23T00:47:37;97760.55;;;8.23;60.46
79174;BME280;68599;49.142;9.124;2024-02-23T00:50:05;97758.69;;;8.20;60.53
79174;BME280;68599;49.142;9.124;2024-02-23T00:52:32;97755.48;;;8.33;59.39
79174;BME280;68599;49.142;9.124;2024-02-23T00:54:58;97758.72;;;8.23;59.76
79174;BME280;68599;49.142;9.124;2024-02-23T00:57:25;97765.41;;;8.22;59.63
79174;BME280;68599;49.142;9.124;2024-02-23T00:59:57;97767.31;;;8.35;58.70
79174;BME280;68599;49.142;9.124;2024-02-23T01:02:24;97763.90;;;8.25;59.66
79174;BME280;68599;49.142;9.124;2024-02-23T01:04:51;97771.98;;;8.24;59.57
79174;BME280;68599;49.142;9.124;2024-02-23T01:07:18;97790.14;;;8.28;59.13
79174;BME280;68599;49.142;9.124;2024-02-23T01:09:44;97793.42;;;8.21;59.52
79174;BME280;68599;49.142;9.124;2024-02-23T01:12:11;97798.89;;;8.09;59.41
79174;BME280;68599;49.142;9.124;2024-02-23T01:14:38;97800.23;;;8.07;59.72
79174;BME280;68599;49.142;9.124;2024-02-23T01:17:04;97793.00;;;8.04;59.95
79174;BME280;68599;49.142;9.124;2024-02-23T01:19:31;97789.51;;;7.97;59.63
79174;BME280;68599;49.142;9.124;2024-02-23T01:21:57;97784.55;;;7.99;59.74
79174;BME280;68599;49.142;9.124;2024-02-23T01:24:27;97784.22;;;7.99;59.78
79174;BME280;68599;49.142;9.124;2024-02-23T01:26:56;97783.12;;;8.00;59.78
79174;BME280;68599;49.142;9.124;2024-02-23T01:29:25;97783.15;;;7.88;60.05
79174;BME280;68599;49.142;9.124;2024-02-23T01:31:53;97774.77;;;7.97;59.58
79174;BME280;68599;49.142;9.124;2024-02-23T01:34:21;97780.73;;;8.01;59.43
79174;BME280;68599;49.142;9.124;2024-02-23T01:36:48;97791.63;;;7.97;59.85
79174;BME280;68599;49.142;9.124;2024-02-23T01:39:15;97803.73;;;7.90;59.21
79174;BME280;68599;49.142;9.124;2024-02-23T01:41:42;97797.41;;;7.91;59.24
79174;BME280;68599;49.142;9.124;2024-02-23T01:44:11;97808.50;;;7.92;59.13
79174;BME280;68599;49.142;9.124;2024-02-23T01:46:38;97813.84;;;7.83;59.23
79174;BME280;68599;49.142;9.124;2024-02-23T01:49:05;97808.62;;;7.78;58.74
79174;BME280;68599;49.142;9.124;2024-02-23T01:51:34;97814.29;;;7.75;59.24
79174;BME280;68599;49.142;9.124;2024-02-23T01:54:01;97811.86;;;7.73;59.48
79174;BME280;68599;49.142;9.124;2024-02-23T01:56:30;97824.08;;;7.78;59.21
79174;BME280;68599;49.142;9.124;2024-02-23T01:58:58;97828.13;;;7.85;58.40
79174;BME280;68599;49.142;9.124;2024-02-23T02:01:25;97833.42;;;7.77;58.48
79174;BME280;68599;49.142;9.124;2024-02-23T02:03:52;97822.67;;;7.82;58.33
79174;BME280;68599;49.142;9.124;2024-02-23T02:06:19;97824.88;;;7.80;58.57
79174;BME280;68599;49.142;9.124;2024-02-23T02:08:46;97829.23;;;7.69;58.70
79174;BME280;68599;49.142;9.124;2024-02-23T02:11:13;97822.88;;;7.71;58.89
79174;BME280;68599;49.142;9.124;2024-02-23T02:13:40;97824.80;;;7.77;58.56
79174;BME280;68599;49.142;9.124;2024-02-23T02:16:07;97826.27;;;7.66;59.37
79174;BME280;68599;49.142;9.124;2024-02-23T02:18:34;97836.73;;;7.64;59.27
79174;BME280;68599;49.142;9.124;2024-02-23T02:21:01;97832.98;;;7.74;58.52
79174;BME280;68599;49.142;9.124;2024-02-23T02:23:27;97840.29;;;7.70;58.56
79174;BME280;68599;49.142;9.124;2024-02-23T02:25:55;97845.13;;;7.70;58.16
79174;BME280;68599;49.142;9.124;2024-02-23T02:28:23;97850.40;;;7.63;58.52
79174;BME280;68599;49.142;9.124;2024-02-23T02:30:51;97856.43;;;7.59;58.72
79174;BME280;68599;49.142;9.124;2024-02-23T02:33:19;97858.89;;;7.66;58.25
79174;BME280;68599;49.142;9.124;2024-02-23T02:35:47;97857.86;;;7.60;58.87
79174;BME280;68599;49.142;9.124;2024-02-23T02:38:14;97864.61;;;7.61;58.96
79174;BME280;68599;49.142;9.124;2024-02-23T02:40:41;97867.45;;;7.67;58.75
79174;BME280;68599;49.142;9.124;2024-02-23T02:43:08;97868.23;;;7.60;58.60
79174;BME280;68599;49.142;9.124;2024-02-23T02:45:34;97869.92;;;7.68;58.06
79174;BME280;68599;49.142;9.124;2024-02-23T02:48:01;97867.27;;;7.67;57.59
79174;BME280;68599;49.142;9.124;2024-02-23T02:50:29;97862.14;;;7.65;57.60
79174;BME280;68599;49.142;9.124;2024-02-23T02:52:55;97871.14;;;7.59;57.77
79174;BME280;68599;49.142;9.124;2024-02-23T02:55:22;97862.13;;;7.71;57.38
79174;BME280;68599;49.142;9.124;2024-02-23T02:57:48;97860.02;;;7.59;57.60
79174;BME280;68599;49.142;9.124;2024-02-23T03:00:15;97856.95;;;7.71;57.03
79174;BME280;68599;49.142;9.124;2024-02-23T03:02:42;97853.14;;;7.72;56.81
79174;BME280;68599;49.142;9.124;2024-02-23T03:05:08;97854.15;;;7.63;56.71
79174;BME280;68599;49.142;9.124;2024-02-23T03:07:35;97857.06;;;7.67;57.09
79174;BME280;68599;49.142;9.124;2024-02-23T03:10:02;97873.78;;;7.71;56.74
79174;BME280;68599;49.142;9.124;2024-02-23T03:12:29;97876.09;;;7.67;57.20
79174;BME280;68599;49.142;9.124;2024-02-23T03:14:55;97875.49;;;7.68;57.51
79174;BME280;68599;49.142;9.124;2024-02-23T03:17:22;97876.89;;;7.74;57.21
79174;BME280;68599;49.142;9.124;2024-02-23T03:19:49;97883.53;;;7.64;57.41
79174;BME280;68599;49.142;9.124;2024-02-23T03:22:19;97879.75;;;7.69;57.47
79174;BME280;68599;49.142;9.124;2024-02-23T03:24:45;97873.13;;;7.69;57.47
79174;BME280;68599;49.142;9.124;2024-02-23T03:27:12;97869.83;;;7.82;56.83
79174;BME280;68599;49.142;9.124;2024-02-23T03:29:39;97877.26;;;7.80;56.48
79174;BME280;68599;49.142;9.124;2024-02-23T03:32:07;97874.77;;;7.69;57.10
79174;BME280;68599;49.142;9.124;2024-02-23T03:34:35;97860.86;;;7.71;57.19
79174;BME280;68599;49.142;9.124;2024-02-23T03:37:02;97861.40;;;7.71;56.81
79174;BME280;68599;49.142;9.124;2024-02-23T03:39:29;97864.07;;;7.67;56.52
79174;BME280;68599;49.142;9.124;2024-02-23T03:41:56;97861.80;;;7.70;56.54
79174;BME280;68599;49.142;9.124;2024-02-23T03:44:22;97869.46;;;7.61;57.28
79174;BME280;68599;49.142;9.124;2024-02-23T03:46:50;97876.52;;;7.59;57.48
79174;BME280;68599;49.142;9.124;2024-02-23T03:49:16;97868.36;;;7.56;57.61
79174;BME280;68599;49.142;9.124;2024-02-23T03:51:43;97870.39;;;7.60;57.45
79174;BME280;68599;49.142;9.124;2024-02-23T03:54:10;97876.42;;;7.57;57.80
79174;BME280;68599;49.142;9.124;2024-02-23T03:56:40;97877.60;;;7.64;57.07
79174;BME280;68599;49.142;9.124;2024-02-23T03:59:08;97899.56;;;7.56;57.20
79174;BME280;68599;49.142;9.124;2024-02-23T04:01:38;97891.80;;;7.52;56.59
79174;BME280;68599;49.142;9.124;2024-02-23T04:04:06;97889.42;;;7.54;56.42
79174;BME280;68599;49.142;9.124;2024-02-23T04:06:33;97890.01;;;7.47;56.31
79174;BME280;68599;49.142;9.124;2024-02-23T04:09:01;97894.71;;;7.34;56.58
79174;BME280;68599;49.142;9.124;2024-02-23T04:11:28;97897.41;;;7.34;56.27
79174;BME280;68599;49.142;9.124;2024-02-23T04:13:54;97906.52;;;7.29;56.11
79174;BME280;68599;49.142;9.124;2024-02-23T04:16:25;97911.61;;;7.38;55.53
79174;BME280;68599;49.142;9.124;2024-02-23T04:18:52;97907.04;;;7.30;55.77
79174;BME280;68599;49.142;9.124;2024-02-23T04:21:20;97893.33;;;7.38;54.93
79174;BME280;68599;49.142;9.124;2024-02-23T04:23:46;97892.94;;;7.33;55.08
79174;BME280;68599;49.142;9.124;2024-02-23T04:26:13;97891.78;;;7.31;54.81
79174;BME280;68599;49.142;9.124;2024-02-23T04:28:41;97890.09;;;7.28;54.64
79174;BME280;68599;49.142;9.124;2024-02-23T04:31:08;97891.67;;;7.28;54.71
79174;BME280;68599;49.142;9.124;2024-02-23T04:33:36;97895.65;;;7.33;54.76
79174;BME280;68599;49.142;9.124;2024-02-23T04:36:04;97891.55;;;7.32;54.90
79174;BME280;68599;49.142;9.124;2024-02-23T04:38:31;97896.74;;;7.38;54.52
79174;BME280;68599;49.142;9.124;2024-02-23T04:40:58;97900.98;;;7.34;55.03
79174;BME280;68599;49.142;9.124;2024-02-23T04:43:25;97890.61;;;7.28;55.20
79174;BME280;68599;49.142;9.124;2024-02-23T04:45:52;97890.33;;;7.37;54.90
79174;BME280;68599;49.142;9.124;2024-02-23T04:48:18;97891.34;;;7.39;55.10
79174;BME280;68599;49.142;9.124;2024-02-23T04:50:45;97894.23;;;7.27;55.63
79174;BME280;68599;49.142;9.124;2024-02-23T04:53:12;97894.36;;;7.28;55.93
79174;BME280;68599;49.142;9.124;2024-02-23T04:55:38;97897.73;;;7.35;55.05
79174;BME280;68599;49.142;9.124;2024-02-23T04:58:06;97906.90;;;7.23;55.32
79174;BME280;68599;49.142;9.124;2024-02-23T05:00:32;97912.98;;;7.23;55.82
79174;BME280;68599;49.142;9.124;2024-02-23T05:03:00;97911.64;;;7.26;55.75
79174;BME280;68599;49.142;9.124;2024-02-23T05:05:30;97908.96;;;7.20;55.65
79174;BME280;68599;49.142;9.124;2024-02-23T05:07:58;97906.67;;;7.18;55.45
79174;BME280;68599;49.142;9.124;2024-02-23T05:10:26;97902.58;;;7.24;55.59
79174;BME280;68599;49.142;9.124;2024-02-23T05:12:53;97902.69;;;7.31;55.70
79174;BME280;68599;49.142;9.124;2024-02-23T05:15:19;97900.03;;;7.41;55.56
79174;BME280;68599;49.142;9.124;2024-02-23T05:17:46;97904.71;;;7.35;55.23
79174;BME280;68599;49.142;9.124;2024-02-23T05:20:13;97899.80;;;7.38;55.44
79174;BME280;68599;49.142;9.124;2024-02-23T05:22:41;97901.45;;;7.36;55.08
79174;BME280;68599;49.142;9.124;2024-02-23T05:25:07;97907.77;;;7.29;54.79
79174;BME280;68599;49.142;9.124;2024-02-23T05:27:35;97898.46;;;7.29;55.30
79174;BME280;68599;49.142;9.124;2024-02-23T05:30:01;97903.34;;;7.33;55.64
79174;BME280;68599;49.142;9.124;2024-02-23T05:32:28;97904.95;;;7.39;55.72
79174;BME280;68599;49.142;9.124;2024-02-23T05:34:55;97902.52;;;7.42;54.81
79174;BME280;68599;49.142;9.124;2024-02-23T05:37:23;97901.08;;;7.43;54.44
79174;BME280;68599;49.142;9.124;2024-02-23T05:39:50;97913.07;;;7.37;54.90
79174;BME280;68599;49.142;9.124;2024-02-23T05:42:18;97907.69;;;7.21;54.96
79174;BME280;68599;49.142;9.124;2024-02-23T05:44:44;97913.27;;;7.26;55.08
79174;BME280;68599;49.142;9.124;2024-02-23T05:47:11;97919.41;;;7.30;54.85
79174;BME280;68599;49.142;9.124;2024-02-23T05:49:40;97923.09;;;7.26;55.32
79174;BME280;68599;49.142;9.124;2024-02-23T05:52:07;97919.77;;;7.24;55.12
79174;BME280;68599;49.142;9.124;2024-02-23T05:54:34;97918.46;;;7.20;55.41
79174;BME280;68599;49.142;9.124;2024-02-23T05:57:00;97929.08;;;7.19;55.66
79174;BME280;68599;49.142;9.124;2024-02-23T05:59:27;97928.31;;;7.20;55.56
79174;BME280;68599;49.142;9.124;2024-02-23T06:01:54;97923.73;;;7.23;55.44
79174;BME280;68599;49.142;9.124;2024-02-23T06:04:24;97921.31;;;7.20;55.74
79174;BME280;68599;49.142;9.124;2024-02-23T06:06:51;97922.20;;;7.20;55.82
79174;BME280;68599;49.142;9.124;2024-02-23T06:09:18;97916.02;;;7.18;55.49
79174;BME280;68599;49.142;9.124;2024-02-23T06:11:45;97925.32;;;7.19;55.80
79174;BME280;68599;49.142;9.124;2024-02-23T06:14:14;97929.64;;;7.12;55.39
79174;BME280;68599;49.142;9.124;2024-02-23T06:16:46;97933.71;;;7.07;55.28
79174;BME280;68599;49.142;9.124;2024-02-23T06:19:12;97938.95;;;7.06;55.23
79174;BME280;68599;49.142;9.124;2024-02-23T06:21:39;97938.33;;;7.03;55.11
79174;BME280;68599;49.142;9.124;2024-02-23T06:24:05;97936.54;;;6.97;55.25
79174;BME280;68599;49.142;9.124;2024-02-23T06:26:35;97938.98;;;6.93;55.10
79174;BME280;68599;49.142;9.124;2024-02-23T06:29:02;97949.36;;;6.93;55.44
79174;BME280;68599;49.142;9.124;2024-02-23T06:31:30;97954.48;;;6.95;55.10
79174;BME280;68599;49.142;9.124;2024-02-23T06:33:57;97960.94;;;6.83;55.21
79174;BME280;68599;49.142;9.124;2024-02-23T06:36:23;97960.61;;;6.76;54.95
79174;BME280;68599;49.142;9.124;2024-02-23T06:38:50;97962.48;;;6.73;55.03
79174;BME280;68599;49.142;9.124;2024-02-23T06:41:17;97969.08;;;6.68;55.33
79174;BME280;68599;49.142;9.124;2024-02-23T06:43:44;97969.97;;;6.55;55.65
79174;BME280;68599;49.142;9.124;2024-02-23T06:46:10;97975.34;;;6.61;54.91
79174;BME280;68599;49.142;9.124;2024-02-23T06:48:37;97978.09;;;6.58;54.00
79174;BME280;68599;49.142;9.124;2024-02-23T06:51:04;97980.73;;;6.60;54.02
79174;BME280;68599;49.142;9.124;2024-02-23T06:53:31;97980.45;;;6.71;54.21
79174;BME280;68599;49.142;9.124;2024-02-23T06:55:58;97984.26;;;6.63;54.33
79174;BME280;68599;49.142;9.124;2024-02-23T06:58:26;97984.34;;;6.60;54.90
79174;BME280;68599;49.142;9.124;2024-02-23T07:00:53;97993.25;;;6.60;55.52
79174;BME280;68599;49.142;9.124;2024-02-23T07:03:19;97990.24;;;6.53;56.10
79174;BME280;68599;49.142;9.124;2024-02-23T07:05:47;97987.58;;;6.40;56.51
79174;BME280;68599;49.142;9.124;2024-02-23T07:08:14;97984.02;;;6.32;56.82
79174;BME280;68599;49.142;9.124;2024-02-23T07:10:41;97985.77;;;6.27;57.19
79174;BME280;68599;49.142;9.124;2024-02-23T07:13:08;97985.34;;;6.30;57.19
79174;BME280;68599;49.142;9.124;2024-02-23T07:15:35;97988.04;;;6.22;58.00
79174;BME280;68599;49.142;9.124;2024-02-23T07:18:03;97986.73;;;6.18;57.98
79174;BME280;68599;49.142;9.124;2024-02-23T07:20:30;97992.16;;;6.29;57.06
79174;BME280;68599;49.142;9.124;2024-02-23T07:22:57;97987.77;;;6.26;57.59
79174;BME280;68599;49.142;9.124;2024-02-23T07:25:23;97982.03;;;6.26;57.81
79174;BME280;68599;49.142;9.124;2024-02-23T07:27:50;97986.09;;;6.35;57.59
79174;BME280;68599;49.142;9.124;2024-02-23T07:30:17;97982.16;;;6.35;57.70
79174;BME280;68599;49.142;9.124;2024-02-23T07:32:44;97979.98;;;6.42;57.52
79174;BME280;68599;49.142;9.124;2024-02-23T07:35:16;97981.27;;;6.48;57.48
79174;BME280;68599;49.142;9.124;2024-02-23T07:37:42;97984.04;;;6.57;56.38
79174;BME280;68599;49.142;9.124;2024-02-23T07:40:10;97983.34;;;6.63;56.20
79174;BME280;68599;49.142;9.124;2024-02-23T07:42:37;97984.42;;;6.63;55.91
79174;BME280;68599;49.142;9.124;2024-02-23T07:45:04;97988.65;;;6.59;55.88
79174;BME280;68599;49.142;9.124;2024-02-23T07:47:31;97992.83;;;6.70;56.03
79174;BME280;68599;49.142;9.124;2024-02-23T07:49:58;97992.60;;;6.78;55.98
79174;BME280;68599;49.142;9.124;2024-02-23T07:52:25;97991.76;;;6.89;55.26
79174;BME280;68599;49.142;9.124;2024-02-23T07:54:52;97992.76;;;6.97;55.40
79174;BME280;68599;49.142;9.124;2024-02-23T07:57:20;97986.26;;;7.05;55.72
79174;BME280;68599;49.142;9.124;2024-02-23T07:59:46;97984.39;;;7.32;54.86
79174;BME280;68599;49.142;9.124;2024-02-23T08:02:14;97980.85;;;7.64;53.94
79174;BME280;68599;49.142;9.124;2024-02-23T08:04:41;97979.67;;;7.95;53.39
79174;BME280;68599;49.142;9.124;2024-02-23T08:07:10;97974.66;;;8.00;52.73
79174;BME280;68599;49.142;9.124;2024-02-23T08:09:37;97973.30;;;8.18;53.07
79174;BME280;68599;49.142;9.124;2024-02-23T08:12:04;97980.88;;;8.28;52.99
79174;BME280;68599;49.142;9.124;2024-02-23T08:14:31;97979.37;;;8.41;52.51
79174;BME280;68599;49.142;9.124;2024-02-23T08:16:59;97974.91;;;8.40;52.25
79174;BME280;68599;49.142;9.124;2024-02-23T08:19:26;97976.48;;;8.04;53.33
79174;BME280;68599;49.142;9.124;2024-02-23T08:21:53;97970.71;;;7.94;53.48
79174;BME280;68599;49.142;9.124;2024-02-23T08:24:19;97965.77;;;8.08;54.12
79174;BME280;68599;49.142;9.124;2024-02-23T08:26:46;97968.58;;;8.36;54.52
79174;BME280;68599;49.142;9.124;2024-02-23T08:29:13;97973.77;;;8.72;53.98
79174;BME280;68599;49.142;9.124;2024-02-23T08:31:40;97979.48;;;9.26;52.21
79174;BME280;68599;49.142;9.124;2024-02-23T08:34:08;97975.55;;;10.14;49.58
79174;BME280;68599;49.142;9.124;2024-02-23T08:36:35;97976.15;;;11.27;45.82
79174;BME280;68599;49.142;9.124;2024-02-23T08:39:01;97966.50;;;12.43;43.58
79174;BME280;68599;49.142;9.124;2024-02-23T08:41:29;97968.46;;;12.82;42.85
79174;BME280;68599;49.142;9.124;2024-02-23T08:43:56;97960.84;;;13.61;41.43
79174;BME280;68599;49.142;9.124;2024-02-23T08:46:23;97958.20;;;15.25;39.40
79174;BME280;68599;49.142;9.124;2024-02-23T08:48:50;97947.84;;;16.45;36.69
79174;BME280;68599;49.142;9.124;2024-02-23T08:51:17;97940.95;;;16.44;34.72
79174;BME280;68599;49.142;9.124;2024-02-23T08:53:43;97932.01;;;16.26;36.68
79174;BME280;68599;49.142;9.124;2024-02-23T08:56:11;97926.15;;;16.95;34.73
79174;BME280;68599;49.142;9.124;2024-02-23T08:58:38;97924.48;;;16.33;34.71
79174;BME280;68599;49.142;9.124;2024-02-23T09:01:05;97926.61;;;15.59;35.50
79174;BME280;68599;49.142;9.124;2024-02-23T09:03:32;97925.45;;;14.83;37.05
79174;BME280;68599;49.142;9.124;2024-02-23T09:05:58;97928.92;;;13.94;38.28
79174;BME280;68599;49.142;9.124;2024-02-23T09:08:25;97931.65;;;13.67;39.20
79174;BME280;68599;49.142;9.124;2024-02-23T09:10:52;97930.17;;;13.92;39.15
79174;BME280;68599;49.142;9.124;2024-02-23T09:13:19;97932.67;;;13.61;39.15
79174;BME280;68599;49.142;9.124;2024-02-23T09:15:46;97936.37;;;12.39;41.98
79174;BME280;68599;49.142;9.124;2024-02-23T09:18:12;97942.75;;;11.66;44.08
79174;BME280;68599;49.142;9.124;2024-02-23T09:20:39;97948.53;;;11.54;44.89
79174;BME280;68599;49.142;9.124;2024-02-23T09:23:06;97954.66;;;11.32;46.14
79174;BME280;68599;49.142;9.124;2024-02-23T09:25:32;97950.27;;;11.59;45.82
79174;BME280;68599;49.142;9.124;2024-02-23T09:27:59;97949.84;;;12.30;44.17
79174;BME280;68599;49.142;9.124;2024-02-23T09:30:25;97950.77;;;13.05;42.53
79174;BME280;68599;49.142;9.124;2024-02-23T09:32:52;97947.70;;;12.98;42.85
79174;BME280;68599;49.142;9.124;2024-02-23T09:35:19;97955.24;;;13.29;42.12
79174;BME280;68599;49.142;9.124;2024-02-23T09:37:46;97950.07;;;13.76;40.10
79174;BME280;68599;49.142;9.124;2024-02-23T09:40:14;97953.32;;;13.76;40.34
79174;BME280;68599;49.142;9.124;2024-02-23T09:42:42;97947.69;;;13.55;41.01
79174;BME280;68599;49.142;9.124;2024-02-23T09:45:10;97944.44;;;15.48;37.12
79174;BME280;68599;49.142;9.124;2024-02-23T09:47:38;97943.00;;;16.12;36.02
79174;BME280;68599;49.142;9.124;2024-02-23T09:50:06;97937.20;;;16.19;36.09
79174;BME280;68599;49.142;9.124;2024-02-23T09:52:34;97935.04;;;16.33;35.90
79174;BME280;68599;49.142;9.124;2024-02-23T09:55:01;97950.66;;;14.70;38.31
79174;BME280;68599;49.142;9.124;2024-02-23T09:57:30;97957.34;;;12.94;41.60
79174;BME280;68599;49.142;9.124;2024-02-23T09:59:57;97964.21;;;12.31;43.12
79174;BME280;68599;49.142;9.124;2024-02-23T10:02:25;97964.77;;;11.66;44.83
79174;BME280;68599;49.142;9.124;2024-02-23T10:04:54;97975.08;;;11.02;45.57
79174;BME280;68599;49.142;9.124;2024-02-23T10:07:23;97981.73;;;9.91;48.17
79174;BME280;68599;49.142;9.124;2024-02-23T10:09:50;97975.40;;;9.92;48.14
79174;BME280;68599;49.142;9.124;2024-02-23T10:12:17;97977.88;;;9.71;49.15
79174;BME280;68599;49.142;9.124;2024-02-23T10:14:44;97983.05;;;9.45;50.59
79174;BME280;68599;49.142;9.124;2024-02-23T10:17:11;97984.19;;;9.20;51.63
79174;BME280;68599;49.142;9.124;2024-02-23T10:19:38;97985.92;;;9.07;51.60
79174;BME280;68599;49.142;9.124;2024-02-23T10:22:05;97985.31;;;9.00;52.18
79174;BME280;68599;49.142;9.124;2024-02-23T10:24:31;97990.82;;;8.77;51.94
79174;BME280;68599;49.142;9.124;2024-02-23T10:26:58;97984.04;;;8.51;53.46
79174;BME280;68599;49.142;9.124;2024-02-23T10:29:25;97984.21;;;8.61;53.33
79174;BME280;68599;49.142;9.124;2024-02-23T10:31:56;97988.67;;;8.62;53.51
79174;BME280;68599;49.142;9.124;2024-02-23T10:34:24;97987.10;;;8.51;52.77
79174;BME280;68599;49.142;9.124;2024-02-23T10:36:54;97995.23;;;8.49;52.91
79174;BME280;68599;49.142;9.124;2024-02-23T10:39:22;98003.28;;;8.34;53.30
79174;BME280;68599;49.142;9.124;2024-02-23T10:41:57;98009.70;;;8.41;53.16
79174;BME280;68599;49.142;9.124;2024-02-23T10:44:28;98005.88;;;8.21;54.13
79174;BME280;68599;49.142;9.124;2024-02-23T10:46:55;98002.02;;;8.35;54.64
79174;BME280;68599;49.142;9.124;2024-02-23T10:49:23;98010.89;;;8.15;55.02
79174;BME280;68599;49.142;9.124;2024-02-23T10:51:54;98008.98;;;8.30;55.53
79174;BME280;68599;49.142;9.124;2024-02-23T10:54:22;98011.16;;;8.40;53.86
79174;BME280;68599;49.142;9.124;2024-02-23T10:56:50;98004.32;;;8.72;53.30
79174;BME280;68599;49.142;9.124;2024-02-23T10:59:18;98000.58;;;8.46;53.53
79174;BME280;68599;49.142;9.124;2024-02-23T11:01:48;98002.25;;;8.28;53.79
79174;BME280;68599;49.142;9.124;2024-02-23T11:04:17;97997.73;;;8.39;53.77
79174;BME280;68599;49.142;9.124;2024-02-23T11:06:51;97996.68;;;8.54;53.92
79174;BME280;68599;49.142;9.124;2024-02-23T11:09:22;97995.95;;;8.65;53.71
79174;BME280;68599;49.142;9.124;2024-02-23T11:11:53;97998.19;;;8.42;53.01
79174;BME280;68599;49.142;9.124;2024-02-23T11:16:59;98006.60;;;8.43;52.72
79174;BME280;68599;49.142;9.124;2024-02-23T11:22:02;97989.35;;;8.27;53.54
79174;BME280;68599;49.142;9.124;2024-02-23T11:24:30;97983.42;;;8.27;53.39
79174;BME280;68599;49.142;9.124;2024-02-23T11:27:01;97984.06;;;8.13;53.83
79174;BME280;68599;49.142;9.124;2024-02-23T11:29:34;97980.90;;;8.06;53.86
79174;BME280;68599;49.142;9.124;2024-02-23T11:32:03;97981.18;;;8.14;53.77
79174;BME280;68599;49.142;9.124;2024-02-23T11:34:30;97982.84;;;8.28;53.76
79174;BME280;68599;49.142;9.124;2024-02-23T11:36:57;97973.86;;;8.34;52.89
79174;BME280;68599;49.142;9.124;2024-02-23T11:39:26;97968.35;;;8.63;52.45
79174;BME280;68599;49.142;9.124;2024-02-23T11:41:53;97970.59;;;8.65;52.87
79174;BME280;68599;49.142;9.124;2024-02-23T11:44:20;97967.79;;;8.53;52.83
79174;BME280;68599;49.142;9.124;2024-02-23T11:46:47;97966.06;;;8.47;53.32
79174;BME280;68599;49.142;9.124;2024-02-23T11:49:14;97965.41;;;8.50;53.14
79174;BME280;68599;49.142;9.124;2024-02-23T11:51:42;97956.27;;;8.89;52.02
79174;BME280;68599;49.142;9.124;2024-02-23T11:54:09;97954.12;;;9.08;51.48
79174;BME280;68599;49.142;9.124;2024-02-23T11:56:35;97948.56;;;8.98;52.19
79174;BME280;68599;49.142;9.124;2024-02-23T11:59:02;97947.65;;;8.98;52.86
79174;BME280;68599;49.142;9.124;2024-02-23T12:01:30;97944.79;;;9.03;52.45
79174;BME280;68599;49.142;9.124;2024-02-23T12:03:57;97947.59;;;8.90;52.53
79174;BME280;68599;49.142;9.124;2024-02-23T12:06:24;97949.77;;;9.09;52.48
79174;BME280;68599;49.142;9.124;2024-02-23T12:08:54;97946.54;;;9.54;51.42
79174;BME280;68599;49.142;9.124;2024-02-23T12:11:21;97940.58;;;10.23;50.04
79174;BME280;68599;49.142;9.124;2024-02-23T12:13:48;97927.27;;;11.95;45.52
79174;BME280;68599;49.142;9.124;2024-02-23T12:16:15;97924.52;;;11.96;44.68
79174;BME280;68599;49.142;9.124;2024-02-23T12:18:42;97924.52;;;11.55;45.40
79174;BME280;68599;49.142;9.124;2024-02-23T12:21:09;97923.09;;;11.25;45.95
79174;BME280;68599;49.142;9.124;2024-02-23T12:23:42;97917.88;;;11.39;46.12
79174;BME280;68599;49.142;9.124;2024-02-23T12:26:12;97930.25;;;11.18;45.94
79174;BME280;68599;49.142;9.124;2024-02-23T12:28:40;97930.08;;;10.38;47.42
79174;BME280;68599;49.142;9.124;2024-02-23T12:31:07;97930.95;;;10.31;48.51
79174;BME280;68599;49.142;9.124;2024-02-23T12:33:36;97927.92;;;10.13;49.50
79174;BME280;68599;49.142;9.124;2024-02-23T12:36:04;97939.86;;;10.07;48.44
79174;BME280;68599;49.142;9.124;2024-02-23T12:38:32;97933.79;;;9.93;49.67
79174;BME280;68599;49.142;9.124;2024-02-23T12:40:59;97937.20;;;9.76;50.55
79174;BME280;68599;49.142;9.124;2024-02-23T12:43:26;97935.31;;;9.52;51.04
79174;BME280;68599;49.142;9.124;2024-02-23T12:45:53;97933.30;;;9.57;50.80
79174;BME280;68599;49.142;9.124;2024-02-23T12:48:23;97927.96;;;9.56;51.65
79174;BME280;68599;49.142;9.124;2024-02-23T12:50:51;97932.20;;;9.17;51.81
79174;BME280;68599;49.142;9.124;2024-02-23T12:53:37;97941.70;;;8.99;51.30
79174;BME280;68599;49.142;9.124;2024-02-23T12:56:06;97935.05;;;9.23;51.67
79174;BME280;68599;49.142;9.124;2024-02-23T12:58:41;97937.38;;;9.27;52.25
79174;BME280;68599;49.142;9.124;2024-02-23T13:01:08;97943.29;;;9.28;52.30
79174;BME280;68599;49.142;9.124;2024-02-23T13:03:37;97938.89;;;9.21;52.28
79174;BME280;68599;49.142;9.124;2024-02-23T13:06:04;97940.82;;;8.89;51.89
79174;BME280;68599;49.142;9.124;2024-02-23T13:08:32;97939.61;;;8.73;53.21
79174;BME280;68599;49.142;9.124;2024-02-23T13:10:59;97940.45;;;8.89;53.53
79174;BME280;68599;49.142;9.124;2024-02-23T13:13:26;97939.92;;;9.18;52.96
79174;BME280;68599;49.142;9.124;2024-02-23T13:15:53;97944.02;;;9.08;53.24